Time;durP1;ratioP1;P1;durP2;ratioP2;P2;SDS_P1;SDS_P2;PMS_P1;PMS_P2;Temp;Humidity;BMP_temperature;BMP_pressure;BME280_temperature;BME280_humidity;BME280_pressure;Samples;Min_cycle;Max_cycle;Signal;HPM_P1;HPM_P2
2021/12/05 04:57:44;;;;;;;88.38;51.03;;;26.40;2201.60;;;;;;4928920;29;20052;-79
2021/12/05 05:01:06;;;;;;;93.53;55.92;;;26.40;2201.60;;;;;;4944207;28;20050;-80
2021/12/05 05:11:21;;;;;;;92.78;56.47;;;26.50;2201.60;;;;;;4937627;29;20026;-80
2021/12/05 05:14:51;;;;;;;124.03;72.10;;;26.50;2201.60;;;;;;4899826;29;20068;-79
2021/12/05 10:02:40;;;;;;;53.40;35.50;;;205.10;2252.80;;;;;;4899218;29;20047;-88
2021/12/05 10:11:13;;;;;;;61.35;43.22;;;205.60;2252.80;;;;;;4898856;29;20031;-86
2021/12/05 10:36:00;;;;;;;23.27;14.68;;;256.80;2252.80;;;;;;4898586;29;20440;-78
2021/12/05 10:38:34;;;;;;;26.52;18.60;;;281.60;2278.40;;;;;;4885132;29;20025;-84
2021/12/05 10:43:43;;;;;;;26.05;15.75;;;282.20;2278.40;;;;;;4901977;29;20112;-83
2021/12/05 10:46:12;;;;;;;25.55;17.92;;;282.40;2278.40;;;;;;4885808;29;20076;-84
2021/12/05 10:48:42;;;;;;;24.88;17.83;;;282.40;2278.40;;;;;;4903627;29;20060;-82
2021/12/05 10:51:12;;;;;;;24.73;16.25;;;282.40;2278.40;;;;;;4903979;29;20047;-85
2021/12/05 10:53:42;;;;;;;22.33;14.35;;;282.40;2278.40;;;;;;4903756;29;20033;-84
2021/12/05 10:56:16;;;;;;;17.55;11.48;;;282.40;2278.40;;;;;;4903474;29;20039;-82
2021/12/05 10:58:49;;;;;;;18.27;12.93;;;282.40;2278.40;;;;;;4903559;29;20461;-84
2021/12/05 11:01:30;;;;;;;15.32;10.23;;;282.50;2278.40;;;;;;4903486;29;20118;-84
2021/12/05 11:04:03;;;;;;;19.02;10.40;;;307.20;2304.00;;;;;;4903136;29;20032;-84
2021/12/05 11:06:38;;;;;;;19.85;13.07;;;307.20;2304.00;;;;;;4903571;29;20028;-85
2021/12/05 11:09:05;;;;;;;15.00;9.68;;;307.20;2304.00;;;;;;4903153;29;20055;-83
2021/12/05 11:11:32;;;;;;;17.45;8.63;;;307.30;2304.00;;;;;;4903428;29;20094;-81
2021/12/05 11:13:59;;;;;;;18.17;11.25;;;307.30;2304.00;;;;;;4903356;29;20028;-86
2021/12/05 11:16:44;;;;;;;16.23;10.55;;;307.30;2304.00;;;;;;4906807;29;20033;-83
2021/12/05 11:19:21;;;;;;;27.48;18.40;;;307.40;2304.00;;;;;;4912685;29;20028;-88
2021/12/05 11:21:53;;;;;;;20.67;15.20;;;307.50;2304.00;;;;;;4903662;29;20372;-84
2021/12/05 11:24:27;;;;;;;13.65;9.93;;;307.50;2304.00;;;;;;4903282;29;20059;-85
2021/12/05 11:27:24;;;;;;;16.08;11.85;;;307.60;2304.00;;;;;;4902462;29;20095;-84
2021/12/05 11:30:18;;;;;;;12.25;8.27;;;307.60;2304.00;;;;;;4888602;29;20042;-87
2021/12/05 11:32:52;;;;;;;19.95;13.00;;;307.60;2304.00;;;;;;4903388;29;20475;-86
2021/12/05 11:35:25;;;;;;;9.18;6.22;;;307.80;2304.00;;;;;;4903227;29;20032;-85
2021/12/05 11:38:08;;;;;;;22.85;12.02;;;307.70;2304.00;;;;;;4903117;29;20074;-85
2021/12/05 11:40:43;;;;;;;23.50;14.05;;;307.70;2304.00;;;;;;4903258;29;20032;-87
2021/12/05 11:43:10;;;;;;;34.83;20.10;;;307.80;2304.00;;;;;;4903069;29;20028;-87
2021/12/05 11:45:51;;;;;;;29.85;18.17;;;307.90;2304.00;;;;;;4902603;29;20034;-84
2021/12/05 11:48:25;;;;;;;24.33;14.75;;;307.90;2304.00;;;;;;4885097;29;20079;-85
2021/12/05 11:50:51;;;;;;;28.90;21.92;;;308.10;2304.00;;;;;;4884107;29;20028;-83
2021/12/05 11:53:42;;;;;;;29.55;18.42;;;332.90;2329.60;;;;;;4883749;29;20537;-84
2021/12/05 11:56:09;;;;;;;19.95;13.60;;;333.40;2329.60;;;;;;4883757;29;20043;-84
2021/12/05 11:58:35;;;;;;;16.98;10.73;;;333.70;2329.60;;;;;;4883890;29;20031;-84
2021/12/05 12:01:13;;;;;;;13.65;10.20;;;333.70;2329.60;;;;;;4883877;29;20028;-84
2021/12/05 12:03:40;;;;;;;29.77;18.70;;;358.50;2329.60;;;;;;4883910;29;20056;-84
2021/12/05 12:06:08;;;;;;;20.75;15.27;;;358.50;2329.60;;;;;;4883574;29;20029;-83
2021/12/05 12:08:34;;;;;;;22.70;15.10;;;358.40;2329.60;;;;;;4883737;29;20025;-85
2021/12/05 12:11:02;;;;;;;17.10;10.32;;;333.50;2329.60;;;;;;4883709;29;20028;-84
2021/12/05 12:13:38;;;;;;;26.83;14.90;;;333.20;2329.60;;;;;;4883214;29;20056;-84
2021/12/05 12:16:08;;;;;;;13.57;8.80;;;332.90;2329.60;;;;;;4883581;29;20060;-80
2021/12/05 12:18:39;;;;;;;11.68;8.38;;;332.80;2329.60;;;;;;4883544;29;20020;-83
2021/12/05 12:21:16;;;;;;;24.85;16.42;;;332.90;2329.60;;;;;;4882897;29;20376;-85
2021/12/05 12:23:42;;;;;;;27.35;17.92;;;332.80;2329.60;;;;;;4883157;29;20036;-84
2021/12/05 12:26:09;;;;;;;29.80;19.65;;;332.80;2329.60;;;;;;4899673;29;20016;-86
2021/12/05 12:28:35;;;;;;;24.73;14.57;;;308.10;2304.00;;;;;;4883366;29;20035;-82
2021/12/05 12:31:10;;;;;;;23.02;14.77;;;308.10;2304.00;;;;;;4883417;29;20032;-85
2021/12/05 12:33:47;;;;;;;25.77;14.75;;;308.00;2304.00;;;;;;4899827;29;20104;-86
2021/12/05 12:36:13;;;;;;;24.80;16.38;;;307.90;2304.00;;;;;;4883139;29;20465;-85
2021/12/05 12:38:44;;;;;;;22.17;13.43;;;307.90;2304.00;;;;;;4883186;29;20036;-84
2021/12/05 12:41:24;;;;;;;36.20;21.70;;;307.80;2304.00;;;;;;4899854;29;20053;-82
2021/12/05 12:44:03;;;;;;;24.80;16.20;;;307.70;2304.00;;;;;;4883067;29;20473;-84
2021/12/05 12:46:40;;;;;;;27.80;18.17;;;307.70;2304.00;;;;;;4886556;29;20056;-82
2021/12/05 12:49:15;;;;;;;31.98;18.92;;;307.60;2304.00;;;;;;4916977;29;20031;-85
2021/12/05 12:51:51;;;;;;;32.83;19.35;;;307.50;2304.00;;;;;;4917317;29;20345;-87
2021/12/05 12:54:32;;;;;;;21.45;14.38;;;307.50;2304.00;;;;;;4917176;29;20110;-91
2021/12/05 12:57:12;;;;;;;30.02;21.98;;;307.50;2304.00;;;;;;4917333;29;20465;-85
2021/12/05 13:00:04;;;;;;;28.23;18.58;;;307.60;2304.00;;;;;;4917682;29;20028;-90
2021/12/05 13:02:57;;;;;;;17.92;13.18;;;307.50;2304.00;;;;;;4916940;29;20111;-90
2021/12/05 13:11:25;;;;;;;24.88;14.68;;;307.50;2304.00;;;;;;4918436;29;20080;-90
2021/12/05 13:14:00;;;;;;;21.35;13.85;;;307.80;2304.00;;;;;;4917612;29;20123;-91
2021/12/05 13:16:31;;;;;;;24.40;15.50;;;307.80;2304.00;;;;;;4917215;29;20032;-89
2021/12/05 13:19:07;;;;;;;21.48;13.02;;;307.80;2304.00;;;;;;4917004;29;20028;-85
2021/12/05 13:21:38;;;;;;;19.08;12.90;;;307.70;2304.00;;;;;;4917119;29;20028;-84
2021/12/05 13:24:30;;;;;;;20.33;14.05;;;307.70;2304.00;;;;;;4916523;29;20028;-87
2021/12/05 13:27:03;;;;;;;24.13;16.30;;;307.60;2304.00;;;;;;4910512;29;20040;-84
2021/12/05 13:29:34;;;;;;;20.40;12.98;;;307.80;2304.00;;;;;;4917817;29;20457;-78
2021/12/05 13:32:13;;;;;;;14.63;10.90;;;308.10;2304.00;;;;;;4916513;29;20024;-79
2021/12/05 13:34:42;;;;;;;17.85;10.70;;;308.00;2304.00;;;;;;4916303;29;20024;-82
2021/12/05 13:37:13;;;;;;;13.25;8.82;;;308.10;2304.00;;;;;;4915932;29;20039;-81
2021/12/05 13:39:47;;;;;;;14.88;10.43;;;332.80;2329.60;;;;;;4917446;29;20024;-79
2021/12/05 13:42:35;;;;;;;22.60;10.05;;;333.00;2329.60;;;;;;4917570;29;20370;-82
2021/12/05 13:45:06;;;;;;;17.55;10.27;;;333.10;2329.60;;;;;;4916103;29;20032;-79
2021/12/05 13:47:41;;;;;;;14.88;8.02;;;333.30;2329.60;;;;;;4916420;29;20099;-84
2021/12/05 13:50:21;;;;;;;13.38;8.23;;;333.40;2329.60;;;;;;4915597;29;20052;-82
2021/12/05 13:53:07;;;;;;;12.98;8.98;;;333.50;2329.60;;;;;;4916981;29;20024;-79
2021/12/05 13:55:36;;;;;;;26.10;15.95;;;333.50;2329.60;;;;;;4902555;29;20036;-82
2021/12/05 13:58:18;;;;;;;19.27;12.10;;;333.50;2329.60;;;;;;4916977;29;20023;-81
2021/12/05 14:00:53;;;;;;;25.10;16.83;;;333.40;2329.60;;;;;;4916268;29;20035;-85
2021/12/05 14:03:56;;;;;;;26.30;20.17;;;333.40;2329.60;;;;;;4917889;29;20035;-82
2021/12/05 14:06:43;;;;;;;20.23;15.95;;;333.20;2329.60;;;;;;4916617;29;20120;-87
2021/12/05 14:09:23;;;;;;;19.65;14.35;;;333.10;2329.60;;;;;;4916656;29;20413;-89
2021/12/05 14:12:06;;;;;;;15.55;12.23;;;332.90;2329.60;;;;;;4916653;29;20024;-88
2021/12/05 14:14:38;;;;;;;16.42;11.98;;;332.80;2329.60;;;;;;4916860;29;20107;-88
2021/12/05 14:17:23;;;;;;;21.33;15.75;;;308.10;2304.00;;;;;;4916542;29;20036;-86
2021/12/05 14:19:57;;;;;;;25.77;17.23;;;308.10;2304.00;;;;;;4916390;29;20115;-88
2021/12/05 14:22:25;;;;;;;20.48;15.63;;;308.10;2304.00;;;;;;4916654;29;20124;-89
2021/12/05 14:24:54;;;;;;;15.07;12.15;;;308.00;2304.00;;;;;;4916354;29;20496;-88
2021/12/05 14:27:30;;;;;;;24.05;16.45;;;308.00;2304.00;;;;;;4916258;29;20472;-88
2021/12/05 14:29:58;;;;;;;18.92;12.30;;;307.90;2304.00;;;;;;4916547;29;20024;-89
2021/12/05 14:32:25;;;;;;;13.90;7.95;;;307.90;2304.00;;;;;;4915952;29;20028;-87
2021/12/05 14:34:55;;;;;;;10.90;8.15;;;307.90;2304.00;;;;;;4916107;29;20075;-81
2021/12/05 14:37:24;;;;;;;16.48;10.55;;;307.90;2304.00;;;;;;4915797;29;20063;-82
2021/12/05 14:39:59;;;;;;;16.58;12.85;;;307.90;2304.00;;;;;;4917022;29;20477;-84
2021/12/05 14:42:28;;;;;;;15.07;9.52;;;307.80;2304.00;;;;;;4915856;29;20028;-85
2021/12/05 14:45:13;;;;;;;35.42;23.05;;;307.80;2304.00;;;;;;4915934;29;20059;-84
2021/12/05 14:47:42;;;;;;;28.02;19.58;;;307.70;2304.00;;;;;;4915191;29;20048;-83
2021/12/05 14:50:24;;;;;;;21.38;16.13;;;307.70;2304.00;;;;;;4915763;29;20032;-85
2021/12/05 14:52:55;;;;;;;24.13;16.47;;;307.60;2304.00;;;;;;4915787;29;20373;-79
2021/12/05 14:55:23;;;;;;;20.42;13.18;;;307.60;2304.00;;;;;;4915477;29;20465;-79
2021/12/05 14:57:52;;;;;;;21.92;14.10;;;307.60;2304.00;;;;;;4915615;29;20028;-82
2021/12/05 15:00:46;;;;;;;31.00;21.80;;;307.50;2304.00;;;;;;4915298;29;20035;-83
2021/12/05 15:03:17;;;;;;;27.30;17.70;;;307.50;2304.00;;;;;;4919213;29;20028;-89
2021/12/05 15:05:49;;;;;;;27.77;17.70;;;307.40;2304.00;;;;;;4919724;29;20052;-89
2021/12/05 15:08:20;;;;;;;27.20;21.05;;;307.30;2304.00;;;;;;4919714;29;20031;-89
2021/12/05 15:10:50;;;;;;;30.35;21.00;;;307.30;2304.00;;;;;;4933885;29;20044;-82
2021/12/05 15:13:17;;;;;;;31.80;21.25;;;307.30;2304.00;;;;;;4926423;29;20028;-84
2021/12/05 15:15:43;;;;;;;31.55;19.20;;;307.30;2304.00;;;;;;4918857;29;20039;-84
2021/12/05 15:18:17;;;;;;;23.50;19.50;;;307.30;2304.00;;;;;;4918990;29;20111;-84
2021/12/05 15:20:46;;;;;;;20.50;14.18;;;307.20;2304.00;;;;;;4918874;29;20021;-81
2021/12/05 15:23:12;;;;;;;28.85;15.95;;;307.20;2304.00;;;;;;4917787;29;20119;-85
2021/12/05 15:25:41;;;;;;;32.65;21.25;;;307.20;2304.00;;;;;;4918746;29;20032;-83
2021/12/05 15:28:09;;;;;;;25.30;19.75;;;282.50;2278.40;;;;;;4919023;29;20060;-85
2021/12/05 15:30:38;;;;;;;24.27;16.02;;;282.50;2278.40;;;;;;4919553;29;20103;-84
2021/12/05 15:33:20;;;;;;;21.33;12.98;;;282.50;2278.40;;;;;;4918525;29;20412;-82
2021/12/05 15:35:48;;;;;;;24.90;16.15;;;282.50;2278.40;;;;;;4934277;29;20059;-85
2021/12/05 15:38:23;;;;;;;30.13;20.33;;;282.50;2278.40;;;;;;4918443;29;20063;-84
2021/12/05 15:40:53;;;;;;;26.98;17.92;;;282.50;2278.40;;;;;;4918782;29;20024;-85
2021/12/05 15:43:22;;;;;;;19.92;12.40;;;282.50;2278.40;;;;;;4918417;29;20480;-87
2021/12/05 15:45:51;;;;;;;25.98;18.25;;;282.50;2278.40;;;;;;4918766;29;20038;-86
2021/12/05 15:48:31;;;;;;;15.52;10.32;;;282.50;2278.40;;;;;;4918592;29;20522;-91
2021/12/05 15:50:58;;;;;;;14.93;9.98;;;282.50;2278.40;;;;;;4919017;29;20035;-90
2021/12/05 15:53:25;;;;;;;19.25;12.15;;;282.40;2278.40;;;;;;4919072;29;20035;-89
2021/12/05 15:55:59;;;;;;;18.55;10.80;;;282.40;2278.40;;;;;;4918877;29;20040;-90
2021/12/05 15:58:32;;;;;;;15.38;11.00;;;282.40;2278.40;;;;;;4918522;29;20083;-83
2021/12/05 16:01:01;;;;;;;22.88;14.20;;;282.40;2278.40;;;;;;4918399;29;20071;-83
2021/12/05 16:03:59;;;;;;;23.63;15.30;;;282.40;2278.40;;;;;;4917995;29;20032;-87
2021/12/05 16:06:43;;;;;;;19.90;12.73;;;282.40;2278.40;;;;;;4918300;29;20024;-86
2021/12/05 16:09:15;;;;;;;31.30;19.63;;;282.40;2278.40;;;;;;4917911;29;20071;-90
2021/12/05 16:11:41;;;;;;;25.98;17.92;;;282.30;2278.40;;;;;;4917642;29;20452;-84
2021/12/05 16:14:07;;;;;;;31.90;22.63;;;282.30;2278.40;;;;;;4918383;29;20067;-86
2021/12/05 16:16:34;;;;;;;40.45;28.52;;;282.30;2278.40;;;;;;4918316;29;20036;-89
2021/12/05 16:19:07;;;;;;;35.00;23.98;;;282.30;2278.40;;;;;;4918138;29;20485;-88
2021/12/05 16:21:36;;;;;;;29.25;21.08;;;282.20;2278.40;;;;;;4918034;29;20028;-87
2021/12/05 16:24:13;;;;;;;32.50;21.20;;;282.20;2278.40;;;;;;4917605;29;20027;-88
2021/12/05 16:26:40;;;;;;;31.02;22.13;;;282.20;2278.40;;;;;;4917973;29;20024;-87
2021/12/05 16:29:10;;;;;;;227.18;168.50;;;282.20;2278.40;;;;;;4918725;29;20020;-85
2021/12/05 16:31:45;;;;;;;108.15;78.30;;;282.10;2278.40;;;;;;4918942;29;20025;-86
2021/12/05 16:34:17;;;;;;;71.13;47.80;;;282.10;2278.40;;;;;;4917915;29;20484;-86
2021/12/05 16:36:53;;;;;;;75.20;51.08;;;282.00;2278.40;;;;;;4917795;29;20034;-88
2021/12/05 16:39:31;;;;;;;66.47;47.63;;;282.00;2278.40;;;;;;4917392;29;20020;-86
2021/12/05 16:42:02;;;;;;;66.38;47.95;;;282.00;2278.40;;;;;;4917791;29;20030;-89
2021/12/05 16:44:30;;;;;;;68.95;51.25;;;281.90;2278.40;;;;;;4917872;29;20024;-88
2021/12/05 16:47:00;;;;;;;68.75;49.45;;;281.80;2278.40;;;;;;4917292;29;20047;-87
2021/12/05 16:49:30;;;;;;;77.13;55.85;;;281.80;2278.40;;;;;;4933450;29;20028;-88
2021/12/05 16:52:05;;;;;;;83.47;62.65;;;281.80;2278.40;;;;;;4917533;29;20405;-86
2021/12/05 16:54:44;;;;;;;71.70;55.92;;;281.80;2278.40;;;;;;4917410;29;20028;-85
2021/12/05 16:57:17;;;;;;;35.38;24.48;;;281.80;2278.40;;;;;;4917486;29;20451;-87
2021/12/05 16:59:49;;;;;;;22.80;15.95;;;281.80;2278.40;;;;;;4917299;29;20027;-87
2021/12/05 17:02:35;;;;;;;16.83;11.85;;;281.80;2278.40;;;;;;4917537;29;20020;-88
2021/12/05 17:05:15;;;;;;;19.70;11.85;;;282.00;2278.40;;;;;;4917640;29;20055;-87
2021/12/05 17:08:12;;;;;;;19.08;11.25;;;282.10;2278.40;;;;;;4917265;29;20478;-88
2021/12/05 17:10:46;;;;;;;27.80;16.83;;;282.10;2278.40;;;;;;4912910;29;20038;-89
2021/12/05 17:13:17;;;;;;;16.35;11.73;;;282.10;2278.40;;;;;;4917307;29;20063;-89
2021/12/05 17:15:47;;;;;;;26.20;16.80;;;282.10;2278.40;;;;;;4917340;29;20032;-87
2021/12/05 17:18:22;;;;;;;26.35;17.40;;;282.00;2278.40;;;;;;4917039;29;20023;-88
2021/12/05 17:21:22;;;;;;;22.15;14.15;;;282.00;2278.40;;;;;;4916970;29;20047;-87
2021/12/05 17:23:54;;;;;;;27.83;14.60;;;282.00;2278.40;;;;;;4909646;29;20120;-88
2021/12/05 17:26:27;;;;;;;23.45;14.23;;;282.00;2278.40;;;;;;4914521;29;20540;-84
2021/12/05 17:28:53;;;;;;;23.17;18.23;;;282.00;2278.40;;;;;;4916799;29;20031;-89
2021/12/05 17:31:30;;;;;;;35.13;20.15;;;282.10;2278.40;;;;;;4917195;29;20028;-88
2021/12/05 17:34:01;;;;;;;38.65;21.92;;;282.10;2278.40;;;;;;4915964;29;20028;-83
2021/12/05 17:36:37;;;;;;;32.17;24.77;;;282.10;2278.40;;;;;;4916960;29;20123;-87
2021/12/05 17:39:17;;;;;;;19.35;13.60;;;282.10;2278.40;;;;;;4916687;29;20028;-89
2021/12/05 17:41:47;;;;;;;27.10;21.10;;;282.10;2278.40;;;;;;4916605;29;20063;-86
2021/12/05 17:44:16;;;;;;;20.25;12.60;;;282.10;2278.40;;;;;;4931984;29;20111;-85
2021/12/05 17:46:42;;;;;;;26.88;18.10;;;282.10;2278.40;;;;;;4917382;29;20108;-86
2021/12/05 17:49:11;;;;;;;55.70;34.45;;;282.20;2278.40;;;;;;4900187;29;20021;-85
2021/12/05 17:51:39;;;;;;;23.80;13.32;;;282.20;2278.40;;;;;;4900942;29;20047;-84
2021/12/05 17:54:11;;;;;;;25.95;18.83;;;282.20;2278.40;;;;;;4900542;29;20067;-82
2021/12/05 17:56:42;;;;;;;24.23;17.70;;;282.30;2278.40;;;;;;4916098;29;20477;-84
2021/12/05 18:04:35;;;;;;;26.75;20.00;;;282.20;2278.40;;;;;;4917329;29;20259;-86
2021/12/05 18:07:01;;;;;;;35.25;25.55;;;282.20;2278.40;;;;;;4900164;29;20032;-89
2021/12/05 18:09:27;;;;;;;34.08;26.25;;;282.20;2278.40;;;;;;4899617;29;20417;-85
2021/12/05 18:11:53;;;;;;;44.30;32.17;;;282.20;2278.40;;;;;;4900261;29;20031;-89
2021/12/05 18:14:19;;;;;;;41.80;25.05;;;281.80;2278.40;;;;;;4899974;29;20043;-86
2021/12/05 18:16:45;;;;;;;35.40;28.00;;;282.20;2278.40;;;;;;4900225;29;20064;-87
2021/12/05 18:19:16;;;;;;;25.95;20.45;;;282.20;2278.40;;;;;;4900545;29;20032;-81
2021/12/05 18:21:43;;;;;;;21.73;16.35;;;282.20;2278.40;;;;;;4917035;29;20020;-84
2021/12/05 18:24:12;;;;;;;21.17;14.93;;;282.20;2278.40;;;;;;4899739;29;20119;-81
2021/12/05 18:26:40;;;;;;;22.48;14.95;;;282.20;2278.40;;;;;;4900526;29;20119;-82
2021/12/05 18:29:08;;;;;;;27.02;15.95;;;282.20;2278.40;;;;;;4900329;29;20380;-83
2021/12/05 18:31:35;;;;;;;35.28;23.52;;;282.20;2278.40;;;;;;4899704;29;20447;-83
2021/12/05 18:34:18;;;;;;;39.25;27.27;;;282.20;2278.40;;;;;;4900382;29;20032;-82
2021/12/05 18:36:44;;;;;;;40.47;26.02;;;282.20;2278.40;;;;;;4902685;29;20028;-84
2021/12/05 18:39:14;;;;;;;51.13;30.83;;;282.20;2278.40;;;;;;4903516;29;20532;-83
2021/12/05 18:41:40;;;;;;;40.83;27.90;;;282.20;2278.40;;;;;;4913228;29;20035;-82
2021/12/05 18:44:13;;;;;;;41.38;28.23;;;282.20;2278.40;;;;;;4921797;29;20030;-83
2021/12/05 18:46:41;;;;;;;38.60;26.88;;;282.10;2278.40;;;;;;4916236;29;20174;-81
2021/12/05 18:49:06;;;;;;;40.13;26.63;;;282.10;2278.40;;;;;;4924199;29;20437;-82
2021/12/05 18:51:33;;;;;;;38.00;24.88;;;282.10;2278.40;;;;;;4901950;29;20103;-81
2021/12/05 18:53:59;;;;;;;67.10;45.28;;;282.20;2278.40;;;;;;4902394;29;20111;-80
2021/12/05 18:56:26;;;;;;;73.82;51.40;;;282.20;2278.40;;;;;;4902032;29;20087;-84
2021/12/05 18:58:53;;;;;;;89.82;62.75;;;282.10;2278.40;;;;;;4901659;29;20126;-82
2021/12/05 19:04:23;;;;;;;101.88;70.50;;;282.00;2278.40;;;;;;4937506;29;20067;-83
2021/12/05 19:06:54;;;;;;;71.55;50.95;;;282.00;2278.40;;;;;;4907202;29;20154;-83
2021/12/05 19:11:58;;;;;;;77.43;51.85;;;282.00;2278.40;;;;;;4918869;29;20112;-79
2021/12/05 19:14:31;;;;;;;106.53;73.07;;;282.00;2278.40;;;;;;4902570;29;20119;-84
2021/12/05 19:17:03;;;;;;;81.13;52.58;;;282.00;2278.40;;;;;;4901839;29;20074;-82
2021/12/05 19:19:30;;;;;;;96.45;69.93;;;281.90;2278.40;;;;;;4901938;29;20035;-78
2021/12/05 19:21:58;;;;;;;108.10;73.85;;;282.00;2278.40;;;;;;4902282;29;20056;-86
2021/12/05 19:24:28;;;;;;;79.97;57.72;;;281.80;2278.40;;;;;;4919701;29;20054;-83
2021/12/05 19:26:57;;;;;;;147.25;97.38;;;281.70;2278.40;;;;;;4903348;29;20028;-86
2021/12/05 19:29:23;;;;;;;314.60;184.98;;;281.60;2278.40;;;;;;4903614;29;20426;-89
2021/12/05 19:31:52;;;;;;;166.52;109.88;;;281.60;2278.40;;;;;;4903021;29;20033;-89
2021/12/05 19:34:18;;;;;;;164.77;111.70;;;281.60;2278.40;;;;;;4903135;29;20028;-87
2021/12/05 19:36:44;;;;;;;177.55;125.60;;;281.60;2278.40;;;;;;4902890;29;20054;-89
2021/12/05 19:39:11;;;;;;;152.63;109.22;;;256.90;2252.80;;;;;;4903207;29;20449;-86
2021/12/05 19:41:37;;;;;;;97.65;58.08;;;281.60;2278.40;;;;;;4902702;29;20047;-84
2021/12/05 19:44:04;;;;;;;64.18;42.13;;;256.80;2252.80;;;;;;4903346;29;20027;-86
2021/12/05 19:46:32;;;;;;;67.20;47.33;;;281.60;2278.40;;;;;;4912862;29;20074;-87
2021/12/05 19:48:59;;;;;;;98.82;68.15;;;281.70;2278.40;;;;;;4920071;29;20111;-88
2021/12/05 19:51:25;;;;;;;101.30;73.32;;;281.60;2278.40;;;;;;4920950;29;20023;-89
2021/12/05 19:53:52;;;;;;;103.97;72.05;;;281.60;2278.40;;;;;;4920601;29;20039;-90
2021/12/05 19:56:20;;;;;;;132.23;85.40;;;256.90;2252.80;;;;;;4920886;29;20083;-89
2021/12/05 19:58:46;;;;;;;113.00;75.82;;;256.90;2252.80;;;;;;4920693;29;20024;-89
2021/12/05 20:01:13;;;;;;;137.65;91.55;;;256.80;2252.80;;;;;;4920378;29;20171;-84
2021/12/05 20:03:41;;;;;;;142.07;92.47;;;256.70;2252.80;;;;;;4920713;29;20078;-87
2021/12/05 20:06:09;;;;;;;112.07;79.15;;;256.60;2252.80;;;;;;4916501;29;20035;-84
2021/12/05 20:08:36;;;;;;;78.57;52.70;;;256.60;2252.80;;;;;;4905011;29;20127;-86
2021/12/05 20:11:03;;;;;;;103.28;70.15;;;256.70;2252.80;;;;;;4907527;29;20035;-85
2021/12/05 20:13:29;;;;;;;76.75;50.17;;;256.60;2252.80;;;;;;4904390;29;20460;-87
2021/12/05 20:15:56;;;;;;;101.25;70.20;;;256.70;2252.80;;;;;;4901964;29;20032;-84
2021/12/05 20:18:22;;;;;;;110.40;70.00;;;256.80;2252.80;;;;;;4902542;29;20510;-90
2021/12/05 20:20:51;;;;;;;107.53;70.45;;;256.80;2252.80;;;;;;4902594;29;20036;-90
2021/12/05 20:23:19;;;;;;;65.30;44.35;;;256.80;2252.80;;;;;;4902262;29;20024;-90
2021/12/05 20:25:46;;;;;;;109.78;67.28;;;256.80;2252.80;;;;;;4902379;29;20031;-92
2021/12/05 20:28:15;;;;;;;157.13;99.55;;;281.70;2278.40;;;;;;4902510;29;20024;-91
2021/12/05 20:30:41;;;;;;;124.70;80.43;;;256.80;2252.80;;;;;;4918099;29;20024;-86
2021/12/05 20:33:20;;;;;;;103.60;71.70;;;256.80;2252.80;;;;;;4902810;29;20028;-91
2021/12/05 20:35:46;;;;;;;101.63;66.68;;;256.70;2252.80;;;;;;4902313;29;20028;-85
2021/12/05 20:38:15;;;;;;;131.07;83.00;;;256.70;2252.80;;;;;;4902357;29;20464;-90
2021/12/05 20:40:49;;;;;;;140.20;86.70;;;256.70;2252.80;;;;;;4903467;29;20062;-92
2021/12/05 20:43:17;;;;;;;65.82;41.75;;;256.70;2252.80;;;;;;4903886;29;20028;-92
2021/12/05 20:45:45;;;;;;;30.35;18.05;;;256.80;2252.80;;;;;;4903234;29;20028;-90
2021/12/05 20:48:12;;;;;;;19.38;13.88;;;281.60;2278.40;;;;;;4903658;29;20054;-92
2021/12/05 20:50:39;;;;;;;19.85;13.32;;;281.80;2278.40;;;;;;4903058;29;20028;-88
2021/12/05 20:53:16;;;;;;;13.90;9.13;;;281.90;2278.40;;;;;;4903373;29;20028;-90
2021/12/05 20:55:43;;;;;;;17.38;10.52;;;282.10;2278.40;;;;;;4902089;29;20036;-90
2021/12/05 20:58:09;;;;;;;19.00;14.55;;;282.10;2278.40;;;;;;4902210;29;20024;-90
2021/12/05 21:00:41;;;;;;;24.70;17.27;;;282.20;2278.40;;;;;;4901450;29;20094;-90
2021/12/05 21:03:13;;;;;;;50.88;27.42;;;282.30;2278.40;;;;;;4901561;29;20077;-89
2021/12/05 21:05:45;;;;;;;44.83;25.58;;;282.40;2278.40;;;;;;4901738;29;20039;-90
2021/12/05 21:08:12;;;;;;;32.38;22.42;;;282.40;2278.40;;;;;;4901832;29;20032;-90
2021/12/05 21:10:45;;;;;;;39.88;27.80;;;282.40;2278.40;;;;;;4901693;29;20020;-90
2021/12/05 21:13:13;;;;;;;20.70;14.70;;;282.50;2278.40;;;;;;4901638;29;20024;-92
2021/12/05 21:15:43;;;;;;;16.15;11.52;;;282.50;2278.40;;;;;;4901826;29;20024;-91
2021/12/05 21:18:11;;;;;;;17.70;13.52;;;282.50;2278.40;;;;;;4902028;29;20087;-90
2021/12/05 21:20:38;;;;;;;12.63;7.65;;;282.50;2278.40;;;;;;4901783;29;20028;-87
2021/12/05 21:23:04;;;;;;;35.38;28.05;;;282.50;2278.40;;;;;;4901539;29;20491;-90
2021/12/05 21:25:31;;;;;;;31.55;24.08;;;307.20;2304.00;;;;;;4901216;29;20111;-88
2021/12/05 21:27:57;;;;;;;46.65;30.75;;;282.50;2278.40;;;;;;4917423;29;20024;-87
2021/12/05 21:30:26;;;;;;;44.45;33.00;;;282.50;2278.40;;;;;;4901350;29;20078;-89
2021/12/05 21:32:54;;;;;;;37.38;28.33;;;282.50;2278.40;;;;;;4901126;29;20405;-89
2021/12/05 21:35:22;;;;;;;24.45;17.95;;;282.40;2278.40;;;;;;4901318;29;20024;-88
2021/12/05 21:37:49;;;;;;;30.25;21.90;;;282.30;2278.40;;;;;;4900881;29;20020;-82
2021/12/05 21:40:23;;;;;;;42.67;27.30;;;282.30;2278.40;;;;;;4915713;29;20020;-85
2021/12/05 21:42:52;;;;;;;28.20;19.02;;;282.20;2278.40;;;;;;4919357;29;20023;-87
2021/12/05 21:45:32;;;;;;;32.75;22.48;;;282.40;2278.40;;;;;;4903650;29;20027;-87
2021/12/05 21:48:13;;;;;;;51.65;29.65;;;282.30;2278.40;;;;;;4910225;29;20135;-89
2021/12/05 21:50:51;;;;;;;109.30;63.00;;;282.30;2278.40;;;;;;4900181;29;20020;-88
2021/12/05 21:53:23;;;;;;;89.55;56.03;;;282.20;2278.40;;;;;;4897503;29;20398;-88
2021/12/05 21:55:51;;;;;;;87.77;56.80;;;307.50;2304.00;;;;;;4900486;29;20473;-88
2021/12/05 21:58:39;;;;;;;101.10;68.75;;;282.20;2278.40;;;;;;4900717;29;20028;-89
2021/12/05 22:01:06;;;;;;;117.47;76.93;;;282.10;2278.40;;;;;;4899597;29;20024;-85
2021/12/05 22:03:34;;;;;;;114.15;74.88;;;282.10;2278.40;;;;;;4899342;29;20473;-85
2021/12/05 22:06:00;;;;;;;95.45;67.43;;;282.10;2278.40;;;;;;4899864;29;20067;-83
2021/12/05 22:08:26;;;;;;;69.80;48.90;;;282.10;2278.40;;;;;;4899148;29;20054;-85
2021/12/05 22:10:53;;;;;;;65.78;42.78;;;282.00;2278.40;;;;;;4901682;29;20427;-83
2021/12/05 22:13:22;;;;;;;59.80;40.38;;;282.10;2278.40;;;;;;4903724;29;20032;-84
2021/12/05 22:15:48;;;;;;;47.30;33.40;;;282.00;2278.40;;;;;;4902766;29;20563;-88
2021/12/05 22:18:14;;;;;;;34.72;23.85;;;281.80;2278.40;;;;;;4903675;29;20027;-85
2021/12/05 22:20:52;;;;;;;28.00;18.38;;;282.10;2278.40;;;;;;4903522;29;20028;-85
2021/12/05 22:23:19;;;;;;;27.23;19.10;;;282.20;2278.40;;;;;;4902956;29;20036;-88
2021/12/05 22:25:45;;;;;;;28.65;16.92;;;282.20;2278.40;;;;;;4903795;29;20164;-87
2021/12/05 22:28:10;;;;;;;25.75;18.35;;;282.20;2278.40;;;;;;4907163;29;20110;-87
2021/12/05 22:30:38;;;;;;;34.75;22.85;;;282.20;2278.40;;;;;;4927382;29;20035;-86
2021/12/05 22:33:05;;;;;;;126.30;72.25;;;282.20;2278.40;;;;;;4916132;29;20032;-89
2021/12/05 22:35:31;;;;;;;65.18;40.00;;;282.20;2278.40;;;;;;4903406;29;20110;-88
2021/12/05 22:37:58;;;;;;;54.65;36.90;;;282.00;2278.40;;;;;;4903803;29;20028;-88
2021/12/05 22:40:24;;;;;;;58.75;41.85;;;281.90;2278.40;;;;;;4903862;29;20028;-88
2021/12/05 22:42:50;;;;;;;63.55;46.03;;;282.00;2278.40;;;;;;4903474;29;20091;-87
2021/12/05 22:45:20;;;;;;;69.90;47.55;;;281.90;2278.40;;;;;;4903454;29;20512;-88
2021/12/05 22:47:47;;;;;;;84.78;51.72;;;281.90;2278.40;;;;;;4913340;29;20487;-88
2021/12/05 22:50:15;;;;;;;70.30;48.17;;;281.80;2278.40;;;;;;4932825;29;20032;-86
2021/12/05 22:52:41;;;;;;;56.45;37.83;;;281.80;2278.40;;;;;;4903050;29;20452;-89
2021/12/05 22:55:08;;;;;;;42.33;29.30;;;281.80;2278.40;;;;;;4903190;29;20111;-86
2021/12/05 22:57:34;;;;;;;25.10;17.10;;;281.80;2278.40;;;;;;4903733;29;20060;-85
2021/12/05 23:00:00;;;;;;;28.92;19.58;;;282.00;2278.40;;;;;;4904024;29;20024;-88